Marwayne, Canada
Current Conditions -  °F | °C
As of 12:00 PM on Thursday 27 Nov 2014 (Local Time) from CYLL Reporting Station
Light Snow Light Snow  
Wind Chill: -12°   Ceiling: 3000
Heat Index:   Visibility: 1mi
Dew Point:   Wind: 18mph
Humidity: 85%   Direction: 50°NE
Pressure: 30.01"   Gusts: 25mph
Location:  53.52°N, 110.33°W
Report Text: CYLL 271900Z 05016G22KT 1SM -SN DRSN OVC030 M14/M16 A3001 RMK SC8 VIS VRB 3/4-11/4 SLP217
Loading
Personal Weather Stations






























Interactive Weather Map New forecast layout! Learn more

10-Day Weather Forecast

Advertisements
Track Severe Weather on mobile